createdAt,value
2023-04-02T00:00:10.547Z,65.30
2023-04-02T00:03:15.482Z,65.08
2023-04-02T00:06:32.994Z,65.65
2023-04-02T00:09:38.078Z,65.68
2023-04-02T00:12:40.766Z,66.06
2023-04-02T00:15:47.164Z,66.38
2023-04-02T00:18:55.596Z,66.55
2023-04-02T00:22:00.487Z,66.74
2023-04-02T00:25:12.373Z,66.97
2023-04-02T00:28:24.358Z,66.70
2023-04-02T00:31:27.608Z,67.03
2023-04-02T00:34:36.856Z,67.08
2023-04-02T00:37:42.220Z,67.24
2023-04-02T00:40:44.725Z,67.10
2023-04-02T00:43:51.408Z,67.12
2023-04-02T00:46:53.890Z,67.00
2023-04-02T00:50:01.626Z,66.97
2023-04-02T00:53:11.669Z,67.20
2023-04-02T00:56:39.081Z,67.14
2023-04-02T01:00:12.121Z,67.25
2023-04-02T01:03:29.901Z,67.35
2023-04-02T01:06:37.288Z,67.12
2023-04-02T01:10:11.480Z,67.19
2023-04-02T01:13:37.265Z,67.28
2023-04-02T01:16:54.034Z,67.11
2023-04-02T01:20:37.414Z,67.02
2023-04-02T01:23:40.032Z,66.79
2023-04-02T01:27:18.773Z,66.73
2023-04-02T01:30:22.270Z,67.13
2023-04-02T01:33:29.976Z,67.01
2023-04-02T01:36:40.990Z,66.86
2023-04-02T01:40:04.925Z,67.21
2023-04-02T01:43:27.418Z,67.21
2023-04-02T01:46:32.860Z,67.08
2023-04-02T01:49:35.857Z,67.33
2023-04-02T01:52:41.858Z,67.46
2023-04-02T01:55:47.077Z,67.43
2023-04-02T01:58:50.097Z,67.34
2023-04-02T02:01:58.999Z,67.61
2023-04-02T02:05:02.231Z,67.68
2023-04-02T02:08:15.497Z,67.59
2023-04-02T02:11:21.653Z,67.78
2023-04-02T02:14:27.021Z,67.76
2023-04-02T02:17:34.662Z,67.88
2023-04-02T02:20:37.640Z,68.12
2023-04-02T02:23:40.280Z,67.92
2023-04-02T02:26:46.362Z,68.13
2023-04-02T02:30:13.257Z,68.13
2023-04-02T02:33:27.025Z,67.94
2023-04-02T02:36:51.591Z,68.12
2023-04-02T02:40:05.418Z,68.30
2023-04-02T02:43:12.151Z,68.13
2023-04-02T02:46:20.743Z,67.85
2023-04-02T02:49:32.830Z,68.07
2023-04-02T02:52:38.212Z,68.24
2023-04-02T02:55:41.280Z,68.61
2023-04-02T02:58:44.630Z,68.40
2023-04-02T03:01:48.266Z,68.35
2023-04-02T03:04:54.110Z,68.45
2023-04-02T03:07:58.733Z,68.12
2023-04-02T03:11:02.104Z,67.98
2023-04-02T03:14:22.469Z,68.17
2023-04-02T03:17:39.737Z,68.26
2023-04-02T03:20:53.534Z,68.17
2023-04-02T03:24:05.822Z,68.49
2023-04-02T03:27:37.309Z,68.46
2023-04-02T03:30:52.992Z,68.39
2023-04-02T03:33:59.448Z,68.26
2023-04-02T03:37:32.259Z,68.12
2023-04-02T03:40:42.802Z,68.15
2023-04-02T03:43:54.820Z,68.46
2023-04-02T03:47:26.419Z,68.59
2023-04-02T03:50:33.500Z,69.10
2023-04-02T03:53:36.338Z,69.37
2023-04-02T03:56:40.112Z,69.25
2023-04-02T03:59:56.382Z,69.07
2023-04-02T04:03:08.295Z,69.22
2023-04-02T04:06:27.608Z,68.96
2023-04-02T04:09:35.187Z,68.86
2023-04-02T04:12:43.914Z,68.96
2023-04-02T04:15:54.430Z,69.02
2023-04-02T04:19:06.672Z,68.79
2023-04-02T04:22:11.449Z,69.14
2023-04-02T04:25:29.621Z,69.16
2023-04-02T04:29:32.089Z,69.47
2023-04-02T04:32:39.288Z,69.61
2023-04-02T04:35:53.124Z,69.75
2023-04-02T04:39:00.657Z,69.85
2023-04-02T04:42:06.019Z,70.00
2023-04-02T04:45:40.882Z,70.25
2023-04-02T04:49:00.487Z,70.52
2023-04-02T04:52:14.604Z,70.79
2023-04-02T04:55:24.644Z,70.80
2023-04-02T04:58:41.013Z,70.71
2023-04-02T05:02:07.630Z,71.02
2023-04-02T05:05:20.148Z,71.18
2023-04-02T05:08:30.592Z,71.10
2023-04-02T05:11:41.319Z,71.05
2023-04-02T05:15:03.184Z,70.86
2023-04-02T05:18:09.129Z,70.72
2023-04-02T05:21:24.137Z,70.35
2023-04-02T05:24:53.517Z,69.82
2023-04-02T05:28:14.844Z,69.43
2023-04-02T05:31:26.737Z,69.27
2023-04-02T05:34:35.224Z,69.11
2023-04-02T05:37:40.032Z,68.89
2023-04-02T05:40:48.281Z,68.54
2023-04-02T05:44:01.168Z,68.31
2023-04-02T05:47:19.596Z,67.97
2023-04-02T05:50:40.070Z,67.80
2023-04-02T05:54:03.949Z,67.66
2023-04-02T05:57:16.005Z,67.10
2023-04-02T06:00:45.604Z,66.69
2023-04-02T06:03:54.884Z,66.44
2023-04-02T06:07:28.318Z,66.25
2023-04-02T06:10:42.570Z,65.52
2023-04-02T06:13:45.262Z,65.47
2023-04-02T06:16:48.935Z,65.25
2023-04-02T06:19:55.333Z,65.17
2023-04-02T06:23:07.774Z,64.65
2023-04-02T06:26:31.678Z,62.81
2023-04-02T06:29:39.933Z,62.28
2023-04-02T06:32:42.778Z,61.84
2023-04-02T06:35:50.996Z,60.64
2023-04-02T06:39:04.189Z,59.33
2023-04-02T06:42:21.822Z,59.90
2023-04-02T06:45:30.469Z,59.58
2023-04-02T06:48:37.891Z,60.28
2023-04-02T06:51:41.767Z,60.37
2023-04-02T06:54:44.676Z,60.41
2023-04-02T06:57:48.595Z,61.09
2023-04-02T07:00:52.525Z,61.40
2023-04-02T07:03:56.489Z,61.33
2023-04-02T07:07:00.056Z,61.36
2023-04-02T07:10:03.268Z,60.55
2023-04-02T07:13:06.416Z,60.60
2023-04-02T07:16:16.132Z,60.12
2023-04-02T07:19:21.799Z,59.11
2023-04-02T07:22:26.869Z,59.48
2023-04-02T07:25:30.426Z,59.56
2023-04-02T07:28:33.262Z,59.27
2023-04-02T07:31:38.382Z,59.82
2023-04-02T07:34:41.589Z,59.73
2023-04-02T07:37:44.295Z,59.48
2023-04-02T07:40:47.072Z,59.00
2023-04-02T07:43:49.772Z,58.65
2023-04-02T07:46:52.379Z,59.03
2023-04-02T07:49:55.028Z,59.95
2023-04-02T07:52:57.421Z,59.71
2023-04-02T07:56:02.875Z,59.29
2023-04-02T07:59:05.437Z,58.76
2023-04-02T08:02:19.312Z,58.12
2023-04-02T08:05:22.607Z,57.97
2023-04-02T08:08:25.915Z,57.71
2023-04-02T08:11:31.806Z,57.61
2023-04-02T08:14:34.474Z,57.28
2023-04-02T08:17:37.277Z,57.95
2023-04-02T08:20:39.988Z,58.08
2023-04-02T08:23:43.117Z,58.19
2023-04-02T08:26:46.452Z,58.92
2023-04-02T08:29:49.074Z,58.22
2023-04-02T08:32:51.468Z,58.45
2023-04-02T08:35:54.277Z,57.52
2023-04-02T08:38:56.859Z,57.44
2023-04-02T08:42:37.216Z,56.34
2023-04-02T08:45:50.607Z,55.86
2023-04-02T08:48:57.993Z,54.73
2023-04-02T08:52:00.901Z,54.88
2023-04-02T08:55:13.278Z,55.43
2023-04-02T08:58:30.551Z,54.60
2023-04-02T09:01:49.504Z,54.53
2023-04-02T09:04:52.285Z,54.57
2023-04-02T09:07:58.685Z,54.17
2023-04-02T09:11:17.864Z,53.80
2023-04-02T09:14:32.536Z,55.01
2023-04-02T09:17:46.388Z,55.16
2023-04-02T09:20:56.027Z,54.61
2023-04-02T09:23:58.345Z,55.67
2023-04-02T09:27:01.303Z,56.89
2023-04-02T09:30:11.196Z,56.38
2023-04-02T09:33:13.960Z,56.25
2023-04-02T09:36:34.219Z,56.00
2023-04-02T09:39:36.904Z,56.00
2023-04-02T09:42:39.394Z,55.87
2023-04-02T09:45:44.337Z,55.67
2023-04-02T09:48:53.553Z,55.93
2023-04-02T09:52:11.331Z,54.88
2023-04-02T09:55:21.970Z,54.99
2023-04-02T09:58:24.644Z,55.47
2023-04-02T10:01:31.035Z,55.12
2023-04-02T10:04:44.816Z,55.19
2023-04-02T10:07:50.150Z,54.85
2023-04-02T10:10:57.063Z,54.46
2023-04-02T10:14:04.856Z,53.94
2023-04-02T10:17:16.079Z,53.69
2023-04-02T10:20:22.996Z,53.22
2023-04-02T10:23:29.823Z,53.37
2023-04-02T10:27:04.119Z,53.31
2023-04-02T10:30:27.257Z,54.47
2023-04-02T10:33:44.813Z,54.55
2023-04-02T10:37:03.617Z,53.96
2023-04-02T10:40:32.142Z,53.62
2023-04-02T10:43:38.979Z,53.07
2023-04-02T10:46:50.907Z,52.53
2023-04-02T10:50:32.371Z,52.26
2023-04-02T10:54:13.096Z,51.71
2023-04-02T10:57:41.265Z,52.08
2023-04-02T11:00:46.730Z,52.74
2023-04-02T11:04:32.403Z,52.32
2023-04-02T11:07:45.443Z,51.46
2023-04-02T11:10:59.146Z,49.82
2023-04-02T11:14:10.049Z,47.71
2023-04-02T11:17:16.327Z,46.70
2023-04-02T11:20:44.160Z,45.17
2023-04-02T11:24:01.316Z,44.48
2023-04-02T11:27:03.548Z,43.53
2023-04-02T11:30:26.389Z,42.89
2023-04-02T11:33:38.171Z,43.14
2023-04-02T11:36:51.209Z,42.76
2023-04-02T11:39:59.198Z,41.61
2023-04-02T11:43:32.773Z,42.83
2023-04-02T11:46:43.116Z,44.06
2023-04-02T11:49:55.294Z,43.24
2023-04-02T11:53:01.483Z,42.60
2023-04-02T11:56:21.188Z,41.55
2023-04-02T12:00:01.760Z,42.43
2023-04-02T12:03:53.738Z,43.08
2023-04-02T12:07:46.667Z,42.53
2023-04-02T12:10:59.716Z,41.95
2023-04-02T12:14:26.952Z,41.73
2023-04-02T12:17:32.381Z,41.27
2023-04-02T12:20:35.323Z,41.31
2023-04-02T12:23:39.156Z,40.15
2023-04-02T12:26:42.935Z,40.58
2023-04-02T12:29:45.468Z,39.88
2023-04-02T12:32:48.972Z,40.19
2023-04-02T12:35:57.961Z,42.77
2023-04-02T12:39:00.861Z,42.54
2023-04-02T12:42:03.258Z,43.37
2023-04-02T12:45:09.494Z,43.54
2023-04-02T12:48:13.529Z,44.17
2023-04-02T12:51:17.601Z,45.55
2023-04-02T12:54:21.062Z,45.22
2023-04-02T12:57:26.533Z,44.36
2023-04-02T13:00:31.708Z,43.43
2023-04-02T13:03:34.336Z,43.27
2023-04-02T13:06:36.993Z,42.55
2023-04-02T13:09:46.615Z,41.95
2023-04-02T13:12:55.007Z,42.75
2023-04-02T13:16:12.934Z,42.96
2023-04-02T13:19:25.776Z,42.81
2023-04-02T13:22:32.000Z,42.88
2023-04-02T13:25:36.614Z,42.56
2023-04-02T13:28:39.351Z,43.63
2023-04-02T13:31:41.762Z,43.91
2023-04-02T13:34:44.392Z,43.15
2023-04-02T13:37:46.875Z,42.83
2023-04-02T13:40:49.556Z,43.24
2023-04-02T13:43:54.170Z,42.51
2023-04-02T13:46:58.010Z,42.36
2023-04-02T13:50:00.387Z,43.04
2023-04-02T13:53:10.456Z,40.56
2023-04-02T13:56:13.119Z,41.12
2023-04-02T13:59:16.347Z,40.86
2023-04-02T14:02:22.116Z,41.36
2023-04-02T14:05:57.103Z,42.55
2023-04-02T14:09:20.708Z,42.77
2023-04-02T14:12:48.685Z,42.50
2023-04-02T14:16:04.203Z,42.68
2023-04-02T14:19:25.140Z,42.84
2023-04-02T14:22:50.770Z,42.85
2023-04-02T14:25:53.296Z,44.38
2023-04-02T14:29:10.414Z,44.68
2023-04-02T14:32:24.724Z,42.53
2023-04-02T14:35:38.716Z,43.93
2023-04-02T14:39:12.556Z,46.64
2023-04-02T14:42:28.893Z,46.85
2023-04-02T14:45:57.929Z,49.49
2023-04-02T14:49:07.111Z,50.03
2023-04-02T14:52:33.370Z,49.09
2023-04-02T14:55:49.268Z,50.20
2023-04-02T14:59:07.066Z,51.91
2023-04-02T15:02:37.655Z,53.78
2023-04-02T15:05:49.755Z,55.42
2023-04-02T15:09:09.046Z,56.86
2023-04-02T15:12:28.829Z,60.78
2023-04-02T15:15:41.163Z,64.65
2023-04-02T15:18:44.038Z,68.15
2023-04-02T15:22:08.696Z,68.38
2023-04-02T15:25:21.007Z,69.50
2023-04-02T15:28:38.290Z,66.59
2023-04-02T15:31:46.102Z,68.53
2023-04-02T15:34:57.961Z,68.53
2023-04-02T15:38:19.137Z,70.58
2023-04-02T15:41:36.672Z,71.57
2023-04-02T15:44:52.437Z,69.89
2023-04-02T15:48:05.914Z,70.65
2023-04-02T15:51:16.741Z,73.42
2023-04-02T15:54:40.022Z,72.28
2023-04-02T15:58:18.448Z,73.01
2023-04-02T16:01:41.723Z,73.54
2023-04-02T16:05:06.518Z,73.92
2023-04-02T16:08:30.413Z,74.87
2023-04-02T16:11:34.377Z,72.38
2023-04-02T16:14:38.767Z,71.83
2023-04-02T16:17:47.072Z,71.07
2023-04-02T16:20:53.083Z,73.10
2023-04-02T16:23:55.938Z,73.85
2023-04-02T16:27:35.136Z,73.76
2023-04-02T16:31:25.948Z,72.89
2023-04-02T16:34:40.206Z,73.14
2023-04-02T16:37:50.410Z,71.90
2023-04-02T16:41:14.450Z,72.46
2023-04-02T16:44:37.282Z,71.79
2023-04-02T16:48:01.106Z,71.60
2023-04-02T16:51:43.045Z,70.90
2023-04-02T16:55:11.779Z,70.66
2023-04-02T16:58:22.049Z,69.73
2023-04-02T17:01:30.665Z,69.51
2023-04-02T17:05:07.070Z,69.28
2023-04-02T17:08:21.941Z,67.76
2023-04-02T17:11:45.930Z,67.53
2023-04-02T17:14:57.500Z,67.11
2023-04-02T17:18:01.907Z,67.28
2023-04-02T17:21:12.722Z,66.15
2023-04-02T17:24:40.261Z,63.88
2023-04-02T17:27:47.925Z,62.93
2023-04-02T17:30:54.058Z,62.81
2023-04-02T17:33:56.764Z,62.29
2023-04-02T17:37:40.221Z,61.68
2023-04-02T17:41:03.751Z,61.64
2023-04-02T17:44:31.208Z,60.98
2023-04-02T17:48:00.948Z,60.81
2023-04-02T17:51:10.794Z,59.73
2023-04-02T17:54:19.245Z,61.68
2023-04-02T17:57:34.483Z,60.55
2023-04-02T18:00:50.459Z,60.45
2023-04-02T18:04:05.101Z,59.88
2023-04-02T18:07:35.619Z,60.70
2023-04-02T18:10:41.105Z,59.53
2023-04-02T18:14:00.827Z,60.39
2023-04-02T18:17:29.322Z,59.46
2023-04-02T18:20:37.853Z,59.43
2023-04-02T18:23:54.251Z,59.18
2023-04-02T18:27:28.996Z,59.18
2023-04-02T18:30:39.561Z,59.69
2023-04-02T18:34:06.693Z,60.01
2023-04-02T18:37:27.600Z,59.82
2023-04-02T18:40:56.053Z,58.26
2023-04-02T18:44:24.618Z,58.43
2023-04-02T18:47:59.301Z,58.83
2023-04-02T18:51:02.389Z,59.38
2023-04-02T18:54:15.080Z,59.53
2023-04-02T18:57:23.828Z,59.39
2023-04-02T19:00:26.415Z,58.97
2023-04-02T19:03:38.441Z,60.16
2023-04-02T19:06:57.035Z,59.03
2023-04-02T19:10:09.011Z,59.05
2023-04-02T19:13:17.091Z,58.79
2023-04-02T19:16:22.773Z,59.21
2023-04-02T19:19:38.079Z,59.15
2023-04-02T19:23:02.465Z,59.63
2023-04-02T19:26:13.808Z,59.28
2023-04-02T19:29:34.508Z,59.57
2023-04-02T19:32:48.724Z,59.69
2023-04-02T19:35:59.041Z,60.01
2023-04-02T19:39:32.730Z,60.20
2023-04-02T19:42:41.447Z,60.92
2023-04-02T19:45:47.791Z,60.25
2023-04-02T19:49:11.986Z,60.97
2023-04-02T19:52:14.395Z,60.32
2023-04-02T19:55:17.020Z,60.98
2023-04-02T19:58:22.628Z,60.70
2023-04-02T20:01:25.329Z,60.19
2023-04-02T20:04:28.082Z,60.04
2023-04-02T20:07:31.188Z,59.79
2023-04-02T20:10:33.936Z,60.05
2023-04-02T20:13:36.451Z,59.84
2023-04-02T20:16:39.588Z,60.47
2023-04-02T20:19:41.976Z,60.18
2023-04-02T20:22:44.755Z,60.06
2023-04-02T20:25:54.938Z,60.38
2023-04-02T20:28:57.827Z,60.24
2023-04-02T20:32:00.157Z,60.52
2023-04-02T20:35:04.185Z,60.69
2023-04-02T20:38:06.692Z,60.28
2023-04-02T20:41:10.045Z,60.10
2023-04-02T20:44:13.071Z,60.16
2023-04-02T20:47:16.136Z,60.10
2023-04-02T20:50:18.496Z,60.31
2023-04-02T20:53:21.460Z,60.60
2023-04-02T20:56:24.738Z,60.36
2023-04-02T20:59:27.325Z,60.37
2023-04-02T21:02:29.731Z,60.51
2023-04-02T21:05:32.408Z,61.03
2023-04-02T21:08:35.254Z,61.60
2023-04-02T21:11:38.080Z,61.36
2023-04-02T21:14:40.647Z,60.95
2023-04-02T21:17:43.317Z,61.02
2023-04-02T21:20:46.029Z,61.72
2023-04-02T21:24:00.344Z,61.42
2023-04-02T21:27:02.686Z,61.82
2023-04-02T21:30:05.840Z,62.00
2023-04-02T21:33:08.202Z,61.93
2023-04-02T21:36:14.289Z,61.68
2023-04-02T21:39:22.207Z,61.96
2023-04-02T21:42:25.903Z,61.95
2023-04-02T21:45:28.389Z,61.67
2023-04-02T21:48:31.856Z,61.35
2023-04-02T21:51:36.210Z,60.94
2023-04-02T21:54:38.908Z,60.62
2023-04-02T21:57:41.284Z,60.33
2023-04-02T22:00:44.030Z,59.72
2023-04-02T22:03:47.251Z,59.98
2023-04-02T22:06:52.146Z,60.48
2023-04-02T22:09:55.077Z,60.13
2023-04-02T22:12:57.464Z,60.16
2023-04-02T22:16:06.466Z,59.91
2023-04-02T22:19:14.847Z,59.60
2023-04-02T22:22:17.496Z,59.45
2023-04-02T22:25:19.888Z,59.28
2023-04-02T22:28:22.941Z,59.24
2023-04-02T22:31:28.905Z,59.26
2023-04-02T22:34:32.052Z,59.28
2023-04-02T22:37:34.380Z,59.46
2023-04-02T22:40:37.306Z,59.17
2023-04-02T22:43:41.731Z,59.25
2023-04-02T22:46:44.522Z,59.08
2023-04-02T22:49:46.840Z,59.59
2023-04-02T22:52:49.560Z,59.91
2023-04-02T22:55:52.778Z,59.61
2023-04-02T22:58:55.537Z,59.56
2023-04-02T23:01:58.044Z,59.25
2023-04-02T23:05:01.015Z,58.87
2023-04-02T23:08:05.364Z,58.97
2023-04-02T23:11:17.099Z,58.98
2023-04-02T23:14:19.443Z,59.13
2023-04-02T23:17:22.006Z,58.89
2023-04-02T23:20:24.329Z,58.56
2023-04-02T23:23:27.417Z,58.60
2023-04-02T23:26:31.386Z,58.34
2023-04-02T23:29:34.446Z,57.81
2023-04-02T23:32:36.860Z,58.28
2023-04-02T23:35:39.654Z,58.35
2023-04-02T23:38:42.039Z,58.59
2023-04-02T23:41:44.815Z,58.60
2023-04-02T23:44:47.114Z,58.61
2023-04-02T23:47:49.783Z,58.90
2023-04-02T23:50:52.206Z,59.05
2023-04-02T23:53:58.250Z,58.90
2023-04-02T23:57:00.583Z,58.85
